Ashton Green, United Kingdom
Current Conditions -  °F | °C
As of 7:50 PM on Thursday 30 Oct 2014 (Local Time) from EGKA Reporting Station
Clear Clear  
Wind Chill: 59°   Ceiling: Unl
Heat Index: 59°   Visibility: 6mi
Dew Point: 57°   Wind: 7mph
Humidity: 94%   Direction: 120°ESE
Pressure: 30.09"   Gusts: NA
Location:  50.94°N, 0.02°W
Report Text: EGKA 301950Z 12006KT 9999 NSC 15/14 Q1019
Loading
Personal Weather Stations






























Interactive Weather Map
Tropical Storm Tracking
New forecast layout! Learn more

10-Day Weather Forecast

Advertisements
Track Severe Weather on mobile